Time;durP1;ratioP1;P1;durP2;ratioP2;P2;SDS_P1;SDS_P2;PMS_P1;PMS_P2;Temp;Humidity;BMP_temperature;BMP_pressure;BME280_temperature;BME280_humidity;BME280_pressure;Samples;Min_cycle;Max_cycle;Signal;HPM_P1;HPM_P2
2022/01/26 00:00:06;;;;;;;55.17;26.08;;;3.10;99.90;;;;;;7174869;33;20557;-61
2022/01/26 00:08:29;;;;;;;54.20;25.92;;;3.10;99.90;;;;;;7177040;33;20544;-61
2022/01/26 00:12:31;;;;;;;57.03;25.80;;;3.20;99.90;;;;;;7154505;33;20493;-61
2022/01/26 00:16:43;;;;;;;59.28;25.95;;;3.10;99.90;;;;;;7171063;33;20266;-62
2022/01/26 00:20:55;;;;;;;57.70;23.92;;;3.10;99.90;;;;;;7170160;33;20113;-61
2022/01/26 00:29:17;;;;;;;58.15;26.08;;;3.20;99.90;;;;;;7159434;33;20489;-60
2022/01/26 00:41:47;;;;;;;57.62;26.80;;;3.20;99.90;;;;;;7171193;33;20822;-61
2022/01/26 00:45:55;;;;;;;59.28;26.00;;;3.10;99.90;;;;;;7171277;33;20109;-62
2022/01/26 00:50:01;;;;;;;62.47;26.75;;;3.10;99.90;;;;;;7175760;33;20180;-61
2022/01/26 00:54:06;;;;;;;61.45;26.65;;;3.10;99.90;;;;;;7166465;33;20922;-61
2022/01/26 00:58:08;;;;;;;56.67;26.05;;;3.00;99.90;;;;;;7174331;33;20192;-62
2022/01/26 01:02:09;;;;;;;54.88;25.02;;;3.00;99.90;;;;;;7178918;33;20794;-61
2022/01/26 01:10:17;;;;;;;64.03;26.95;;;3.00;99.90;;;;;;7166960;33;20117;-61
2022/01/26 01:14:19;;;;;;;56.63;25.12;;;2.90;99.90;;;;;;7175231;33;20125;-61
2022/01/26 01:18:31;;;;;;;57.38;26.08;;;2.90;99.90;;;;;;7177971;32;20127;-61
2022/01/26 01:22:49;;;;;;;58.08;25.88;;;3.00;99.90;;;;;;7173573;32;20653;-62
2022/01/26 01:31:17;;;;;;;60.65;26.90;;;3.00;99.90;;;;;;7175240;32;20516;-61
2022/01/26 01:35:20;;;;;;;60.72;28.40;;;3.00;99.90;;;;;;7176607;33;20109;-61
2022/01/26 01:39:22;;;;;;;58.45;29.45;;;3.00;99.90;;;;;;7173007;33;20572;-61
2022/01/26 01:43:24;;;;;;;70.20;32.08;;;3.10;99.90;;;;;;7175693;33;20109;-61
2022/01/26 01:47:26;;;;;;;64.80;30.95;;;3.10;99.90;;;;;;7169355;33;20127;-62
2022/01/26 01:51:37;;;;;;;73.97;33.78;;;3.00;99.90;;;;;;7178854;33;20133;-61
2022/01/26 01:55:41;;;;;;;67.15;32.85;;;3.00;99.90;;;;;;7174686;33;20766;-60
2022/01/26 01:59:43;;;;;;;70.28;31.85;;;2.90;99.90;;;;;;7170077;33;20216;-61
2022/01/26 02:03:45;;;;;;;70.10;33.53;;;3.00;99.90;;;;;;7175520;33;20131;-61
2022/01/26 02:07:46;;;;;;;71.80;33.15;;;2.90;99.90;;;;;;7177614;33;20846;-61
2022/01/26 02:11:51;;;;;;;71.10;33.92;;;2.90;99.90;;;;;;7173032;33;20110;-61
2022/01/26 02:16:17;;;;;;;75.20;34.70;;;2.90;99.90;;;;;;7173996;33;20585;-62
2022/01/26 02:51:07;;;;;;;86.07;37.55;;;2.90;99.90;;;;;;7170913;33;20211;-60
2022/01/26 02:59:59;;;;;;;84.45;37.75;;;2.90;99.90;;;;;;7177600;33;20144;-59
2022/01/26 03:08:06;;;;;;;93.95;38.85;;;2.90;99.90;;;;;;7172134;33;20303;-60
2022/01/26 03:12:10;;;;;;;95.18;40.22;;;2.90;99.90;;;;;;7173758;33;20110;-60
2022/01/26 03:16:30;;;;;;;99.50;41.25;;;2.90;99.90;;;;;;7171137;33;20231;-60
2022/01/26 03:20:34;;;;;;;112.22;41.83;;;2.90;99.90;;;;;;7174090;33;20114;-59
2022/01/26 03:37:21;;;;;;;116.90;44.85;;;2.90;99.90;;;;;;7176308;32;20105;-59
2022/01/26 03:45:28;;;;;;;117.30;45.58;;;2.80;99.90;;;;;;7174028;32;20121;-59
2022/01/26 03:49:29;;;;;;;118.70;43.53;;;2.80;99.90;;;;;;7166937;33;20160;-59
2022/01/26 03:53:31;;;;;;;125.78;45.78;;;2.90;99.90;;;;;;7173148;33;20486;-59
2022/01/26 03:57:33;;;;;;;115.12;44.45;;;2.80;99.90;;;;;;7168731;32;20232;-60
2022/01/26 04:01:36;;;;;;;117.70;45.90;;;2.80;99.90;;;;;;7167807;33;20121;-59
2022/01/26 04:05:38;;;;;;;112.88;44.97;;;2.80;99.90;;;;;;7177707;33;20139;-59
2022/01/26 04:09:39;;;;;;;117.35;42.95;;;2.80;99.90;;;;;;7171261;33;20133;-59
2022/01/26 04:13:41;;;;;;;118.87;44.17;;;2.90;99.90;;;;;;7171620;33;20219;-59
2022/01/26 04:17:43;;;;;;;108.55;41.60;;;2.90;99.90;;;;;;7167633;33;20453;-59
2022/01/26 04:22:01;;;;;;;118.13;43.72;;;2.80;99.90;;;;;;7169775;32;20105;-59
2022/01/26 04:26:03;;;;;;;103.07;39.90;;;2.80;99.90;;;;;;7156340;33;20184;-60
2022/01/26 04:30:06;;;;;;;110.95;40.25;;;2.80;99.90;;;;;;7171469;33;20596;-59
2022/01/26 04:34:08;;;;;;;110.75;41.78;;;2.70;99.90;;;;;;7170228;33;20665;-59
2022/01/26 04:38:25;;;;;;;110.37;40.67;;;2.70;99.90;;;;;;7171706;33;20121;-60
2022/01/26 04:46:35;;;;;;;104.25;39.38;;;2.70;99.90;;;;;;7177505;33;20455;-60
2022/01/26 04:50:37;;;;;;;110.45;41.33;;;2.70;99.90;;;;;;7175452;33;20188;-60
2022/01/26 04:54:39;;;;;;;102.97;37.80;;;2.70;99.90;;;;;;7162415;33;20125;-60
2022/01/26 04:58:41;;;;;;;111.85;39.47;;;2.70;99.90;;;;;;7177111;33;20199;-60
2022/01/26 05:02:42;;;;;;;104.30;38.00;;;2.60;99.90;;;;;;7172718;33;20121;-60
2022/01/26 05:06:44;;;;;;;106.32;39.67;;;2.60;99.90;;;;;;7172790;33;20757;-60
2022/01/26 05:10:46;;;;;;;99.60;36.65;;;2.60;99.90;;;;;;7171084;33;20110;-59
2022/01/26 05:14:49;;;;;;;102.40;38.65;;;2.60;99.90;;;;;;7173327;33;20494;-60
2022/01/26 05:18:51;;;;;;;99.15;36.83;;;2.60;99.90;;;;;;7169062;33;20113;-60
2022/01/26 05:22:52;;;;;;;106.80;39.65;;;2.70;99.90;;;;;;7172420;33;20105;-60
2022/01/26 05:26:54;;;;;;;95.68;34.75;;;2.60;99.90;;;;;;7167998;33;20496;-60
2022/01/26 05:30:56;;;;;;;104.60;38.38;;;2.60;99.90;;;;;;7168126;33;20651;-59
2022/01/26 05:34:57;;;;;;;102.55;37.72;;;2.60;99.90;;;;;;7170958;33;20109;-59
2022/01/26 05:38:59;;;;;;;101.60;37.97;;;2.60;99.90;;;;;;7172018;33;20110;-60
2022/01/26 05:43:00;;;;;;;106.20;37.60;;;2.60;99.90;;;;;;7178882;32;20127;-59
2022/01/26 05:47:05;;;;;;;102.95;36.75;;;2.60;99.90;;;;;;7176257;32;20114;-59
2022/01/26 05:51:08;;;;;;;106.35;35.97;;;2.50;99.90;;;;;;7183325;32;20121;-60
2022/01/26 05:55:10;;;;;;;104.28;38.33;;;2.50;99.90;;;;;;7179323;32;20855;-59
2022/01/26 05:59:14;;;;;;;113.45;39.33;;;2.60;99.90;;;;;;7178032;32;20522;-59
2022/01/26 06:03:15;;;;;;;105.28;35.42;;;2.50;99.90;;;;;;7183538;32;20192;-57
2022/01/26 06:07:17;;;;;;;107.87;38.65;;;2.50;99.90;;;;;;7179238;32;20101;-59
2022/01/26 06:11:19;;;;;;;109.87;39.60;;;2.50;99.90;;;;;;7181509;32;20534;-59
2022/01/26 06:15:21;;;;;;;113.03;40.75;;;2.50;99.90;;;;;;7177738;32;20193;-58
2022/01/26 06:19:22;;;;;;;113.45;40.38;;;2.50;99.90;;;;;;7182181;32;20564;-59
2022/01/26 06:23:25;;;;;;;111.65;39.45;;;2.60;99.90;;;;;;7178224;32;20141;-59
2022/01/26 06:27:26;;;;;;;116.95;41.10;;;2.60;99.90;;;;;;7178645;32;20200;-59
2022/01/26 06:31:28;;;;;;;109.72;38.72;;;2.60;99.90;;;;;;7182173;32;20129;-60
2022/01/26 06:35:30;;;;;;;110.90;39.25;;;2.60;99.90;;;;;;7177489;32;20109;-59
2022/01/26 06:39:33;;;;;;;107.35;38.05;;;2.50;99.90;;;;;;7174285;32;20489;-60
2022/01/26 06:43:35;;;;;;;113.12;36.55;;;2.50;99.90;;;;;;7183651;33;20215;-59
2022/01/26 06:51:48;;;;;;;109.80;37.50;;;2.50;99.90;;;;;;7174985;32;20529;-60
2022/01/26 06:55:50;;;;;;;104.20;36.47;;;2.50;99.90;;;;;;7180466;32;20113;-60
2022/01/26 06:59:52;;;;;;;112.50;36.80;;;2.50;99.90;;;;;;7171258;32;20216;-59
2022/01/26 07:03:53;;;;;;;116.05;37.17;;;2.40;99.90;;;;;;7177531;32;20109;-59
2022/01/26 07:07:55;;;;;;;109.63;37.50;;;2.40;99.90;;;;;;7180486;32;20195;-60
2022/01/26 07:11:57;;;;;;;115.10;39.13;;;2.40;99.90;;;;;;7176901;32;20551;-59
2022/01/26 07:24:39;;;;;;;111.50;36.88;;;2.50;99.90;;;;;;7175451;32;20148;-58
2022/01/26 07:28:41;;;;;;;118.10;40.03;;;2.50;99.90;;;;;;7176377;32;20597;-59
2022/01/26 07:32:43;;;;;;;112.07;38.15;;;2.50;99.90;;;;;;7171695;32;20117;-59
2022/01/26 07:36:47;;;;;;;109.70;38.40;;;2.50;99.90;;;;;;7173562;32;20184;-59
2022/01/26 07:40:48;;;;;;;110.50;36.90;;;2.50;99.90;;;;;;7173513;32;20152;-59
2022/01/26 07:44:50;;;;;;;112.68;39.78;;;2.50;99.90;;;;;;7173729;33;20113;-59
2022/01/26 07:48:52;;;;;;;111.43;37.03;;;2.50;99.90;;;;;;7168171;32;20207;-59
2022/01/26 07:52:54;;;;;;;109.55;38.10;;;2.40;99.90;;;;;;7173352;32;20196;-59
2022/01/26 07:56:56;;;;;;;114.47;39.63;;;2.50;99.90;;;;;;7168018;32;20208;-59
2022/01/26 08:01:03;;;;;;;118.55;38.63;;;2.60;99.90;;;;;;7170398;32;20093;-59
2022/01/26 08:05:05;;;;;;;116.35;38.55;;;2.60;99.90;;;;;;7172094;32;20426;-59
2022/01/26 08:09:07;;;;;;;119.82;40.00;;;2.70;99.90;;;;;;7175254;32;20482;-60
2022/01/26 08:13:09;;;;;;;118.57;39.90;;;2.60;99.90;;;;;;7168499;32;20105;-59
2022/01/26 08:17:14;;;;;;;121.65;40.12;;;2.70;99.90;;;;;;7175164;32;20123;-59
2022/01/26 08:21:18;;;;;;;117.80;38.45;;;2.60;99.90;;;;;;7163562;32;20131;-60
2022/01/26 08:25:21;;;;;;;129.52;42.00;;;2.70;99.90;;;;;;7177104;32;20193;-59
2022/01/26 08:29:28;;;;;;;117.85;40.05;;;2.70;99.90;;;;;;7174602;32;20232;-59
2022/01/26 08:33:29;;;;;;;131.82;43.65;;;2.70;99.90;;;;;;7173292;32;20552;-60
2022/01/26 08:37:31;;;;;;;119.28;40.47;;;2.60;99.90;;;;;;7174729;33;20564;-59
2022/01/26 08:41:33;;;;;;;118.57;40.67;;;2.70;99.90;;;;;;7176592;33;20128;-60
2022/01/26 08:45:34;;;;;;;123.70;41.92;;;2.70;99.90;;;;;;7174970;33;20223;-60
2022/01/26 08:49:36;;;;;;;119.30;41.03;;;2.70;99.90;;;;;;7175421;33;20110;-59
2022/01/26 08:53:38;;;;;;;121.95;41.72;;;2.80;99.90;;;;;;7173011;33;20101;-59
2022/01/26 08:57:39;;;;;;;130.02;41.53;;;2.90;99.90;;;;;;7174641;33;20191;-60
2022/01/26 09:01:41;;;;;;;124.20;41.37;;;2.80;99.90;;;;;;7173208;33;20216;-60
2022/01/26 09:05:43;;;;;;;122.97;41.80;;;2.90;99.90;;;;;;7172987;33;20287;-60
2022/01/26 09:09:46;;;;;;;124.85;42.60;;;3.00;99.90;;;;;;7173514;33;20230;-60
2022/01/26 09:13:55;;;;;;;128.00;41.17;;;3.00;99.90;;;;;;7172566;33;20545;-60
2022/01/26 09:17:59;;;;;;;130.75;44.70;;;3.00;99.90;;;;;;7179927;32;20110;-60
2022/01/26 09:22:10;;;;;;;123.38;43.42;;;3.00;99.90;;;;;;7178487;32;20140;-59
2022/01/26 09:26:12;;;;;;;128.27;44.97;;;3.00;99.90;;;;;;7173350;32;20114;-60
2022/01/26 09:30:13;;;;;;;124.25;42.38;;;3.00;99.90;;;;;;7178393;32;20781;-60
2022/01/26 09:34:21;;;;;;;124.07;44.47;;;3.00;99.90;;;;;;7181105;32;20831;-59
2022/01/26 09:38:22;;;;;;;124.35;43.35;;;3.00;99.90;;;;;;7171823;32;20124;-60
2022/01/26 09:42:24;;;;;;;123.05;43.67;;;3.00;99.90;;;;;;7173240;33;20101;-60
2022/01/26 09:46:26;;;;;;;123.68;45.10;;;3.00;99.90;;;;;;7172649;32;20109;-59
2022/01/26 09:50:28;;;;;;;128.70;43.78;;;2.90;99.90;;;;;;7176157;33;20113;-60
2022/01/26 09:54:30;;;;;;;128.77;43.87;;;2.90;99.90;;;;;;7180849;33;20097;-59
2022/01/26 09:58:52;;;;;;;125.62;42.75;;;3.00;99.90;;;;;;7182127;33;20723;-59
2022/01/26 10:03:02;;;;;;;122.03;43.90;;;3.00;99.90;;;;;;7175899;33;20582;-59
2022/01/26 10:20:24;;;;;;;113.82;39.75;;;3.00;99.90;;;;;;7160093;32;20109;-60
2022/01/26 10:24:28;;;;;;;117.45;40.53;;;3.00;99.90;;;;;;7179105;33;20710;-59
2022/01/26 10:28:44;;;;;;;118.00;42.42;;;3.00;99.90;;;;;;7175304;33;20176;-60
2022/01/26 10:32:47;;;;;;;127.75;41.00;;;3.10;99.90;;;;;;7175297;33;20204;-60
2022/01/26 10:36:57;;;;;;;115.97;38.20;;;3.00;99.90;;;;;;7175588;33;20184;-60
2022/01/26 10:41:01;;;;;;;127.70;40.95;;;3.10;99.90;;;;;;7173541;33;20503;-60
2022/01/26 10:49:15;;;;;;;139.45;42.53;;;3.10;99.90;;;;;;7176278;33;20212;-60
2022/01/26 10:53:19;;;;;;;121.15;40.92;;;3.10;99.90;;;;;;7175209;33;20179;-60
2022/01/26 10:57:20;;;;;;;131.00;42.92;;;3.20;99.90;;;;;;7178173;32;20181;-60
2022/01/26 11:01:22;;;;;;;130.00;41.85;;;3.10;99.90;;;;;;7176255;32;20136;-59
2022/01/26 11:05:24;;;;;;;124.25;38.78;;;3.10;99.90;;;;;;7169085;33;20540;-59
2022/01/26 11:09:30;;;;;;;128.95;42.20;;;3.00;99.90;;;;;;7172019;33;20277;-60
2022/01/26 11:13:36;;;;;;;123.03;38.55;;;3.10;99.90;;;;;;7177201;33;20478;-59
2022/01/26 11:17:43;;;;;;;124.97;38.47;;;3.10;99.90;;;;;;7177624;32;20197;-59
2022/01/26 11:21:44;;;;;;;118.90;36.38;;;3.10;99.90;;;;;;7177601;32;20124;-58
2022/01/26 11:25:48;;;;;;;118.35;38.47;;;3.10;99.90;;;;;;7181467;32;20860;-59
2022/01/26 11:29:54;;;;;;;113.20;37.45;;;3.10;99.90;;;;;;7177612;33;20105;-59
2022/01/26 11:33:56;;;;;;;125.53;40.30;;;3.20;99.90;;;;;;7177744;33;20242;-59
2022/01/26 11:38:30;;;;;;;119.55;37.55;;;3.20;99.90;;;;;;7170408;32;20114;-59
2022/01/26 11:46:53;;;;;;;106.07;34.83;;;3.40;99.90;;;;;;7176425;32;20136;-58
2022/01/26 11:51:00;;;;;;;111.60;35.60;;;3.30;99.90;;;;;;7176666;32;20106;-58
2022/01/26 11:55:31;;;;;;;112.62;36.75;;;3.30;99.90;;;;;;7173687;32;20645;-59
2022/01/26 11:59:35;;;;;;;109.90;36.03;;;3.30;99.90;;;;;;7177183;32;20125;-59
2022/01/26 12:03:45;;;;;;;114.03;37.33;;;3.30;99.90;;;;;;7175845;32;20128;-59
2022/01/26 12:07:52;;;;;;;109.55;34.85;;;3.30;99.90;;;;;;7175807;32;20105;-59
2022/01/26 12:11:55;;;;;;;113.03;37.40;;;3.20;99.90;;;;;;7167402;32;20106;-58
2022/01/26 12:16:08;;;;;;;110.00;35.72;;;3.30;99.90;;;;;;7174140;32;20140;-58
2022/01/26 12:33:46;;;;;;;104.93;34.92;;;3.40;99.90;;;;;;7170520;32;20802;-58
2022/01/26 12:37:57;;;;;;;96.65;32.60;;;3.30;99.90;;;;;;7169443;32;20645;-59
2022/01/26 12:42:12;;;;;;;94.55;31.85;;;3.40;99.90;;;;;;7170057;32;20466;-59
2022/01/26 12:46:15;;;;;;;98.55;33.08;;;3.30;99.90;;;;;;7174359;33;20104;-58
2022/01/26 12:50:18;;;;;;;93.07;31.55;;;3.30;99.90;;;;;;7172905;32;20229;-59
2022/01/26 12:54:20;;;;;;;102.00;32.42;;;3.30;99.90;;;;;;7178235;33;20105;-58
2022/01/26 12:58:27;;;;;;;94.10;31.35;;;3.50;99.90;;;;;;7173650;33;20124;-57
2022/01/26 13:02:29;;;;;;;;;;;3.50;99.90;;;;;;7179709;33;20124;-58
2022/01/26 13:06:37;;;;;;;85.53;28.27;;;3.60;99.90;;;;;;7173222;33;20006;-59
2022/01/26 13:10:40;;;;;;;83.80;28.80;;;3.60;99.90;;;;;;7177076;33;20609;-58
2022/01/26 13:14:47;;;;;;;87.53;28.23;;;3.60;99.90;;;;;;7175552;33;20132;-59
2022/01/26 13:23:36;;;;;;;77.18;26.75;;;3.40;99.90;;;;;;7175980;33;21661;-58
2022/01/26 13:28:03;;;;;;;80.70;27.37;;;3.40;99.90;;;;;;7166406;33;20140;-58
2022/01/26 13:32:23;;;;;;;81.05;27.50;;;3.40;99.90;;;;;;7171233;33;20686;-58
2022/01/26 13:36:48;;;;;;;87.32;29.77;;;3.40;99.90;;;;;;7175457;33;20106;-58
2022/01/26 13:53:19;;;;;;;82.00;28.05;;;3.50;99.90;;;;;;7177064;33;20132;-57
2022/01/26 14:01:29;;;;;;;77.18;28.35;;;3.40;99.90;;;;;;7170632;33;20287;-58
2022/01/26 14:05:31;;;;;;;77.25;26.90;;;3.40;99.90;;;;;;7173979;33;20160;-59
2022/01/26 14:09:33;;;;;;;72.60;24.98;;;3.40;99.90;;;;;;7177115;33;20256;-58
2022/01/26 14:13:36;;;;;;;73.10;27.60;;;3.40;99.90;;;;;;7178566;33;20105;-58
2022/01/26 14:26:13;;;;;;;86.47;28.87;;;3.30;99.90;;;;;;7173684;33;20110;-58
2022/01/26 14:30:32;;;;;;;72.90;27.85;;;3.40;99.90;;;;;;7179180;33;20159;-58
2022/01/26 14:53:19;;;;;;;74.07;27.02;;;3.40;99.90;;;;;;7163632;33;20136;-58
2022/01/26 15:09:18;;;;;;;73.60;26.98;;;3.40;99.90;;;;;;7175194;33;20238;-59
2022/01/26 15:52:43;;;;;;;72.10;26.30;;;3.30;99.90;;;;;;7144151;33;20113;-58
2022/01/26 16:36:23;;;;;;;75.80;27.05;;;3.30;99.90;;;;;;7177812;32;20109;-58
2022/01/26 17:34:32;;;;;;;76.95;28.55;;;3.10;99.90;;;;;;7176007;33;20113;-58
2022/01/26 18:16:03;;;;;;;77.00;27.33;;;3.20;99.90;;;;;;7179489;32;20897;-59
2022/01/26 18:33:12;;;;;;;80.35;29.23;;;3.10;99.90;;;;;;7177825;32;20536;-58
2022/01/26 18:50:36;;;;;;;64.87;24.98;;;3.10;99.90;;;;;;7181116;32;20118;-60
2022/01/26 18:54:39;;;;;;;68.45;26.45;;;3.00;99.90;;;;;;7172449;32;20197;-59
2022/01/26 18:58:41;;;;;;;66.70;27.13;;;3.00;99.90;;;;;;7181506;33;20131;-59
2022/01/26 19:02:42;;;;;;;69.95;27.95;;;3.10;99.90;;;;;;7182080;33;20118;-58
2022/01/26 19:06:50;;;;;;;62.60;26.05;;;3.10;99.90;;;;;;7179034;33;20147;-59
2022/01/26 19:10:52;;;;;;;65.62;26.77;;;3.10;99.90;;;;;;7176731;33;20219;-58
2022/01/26 19:14:59;;;;;;;67.65;26.42;;;3.10;99.90;;;;;;7176781;33;20476;-59
2022/01/26 19:19:13;;;;;;;63.25;24.95;;;3.10;99.90;;;;;;7183386;33;20110;-59
2022/01/26 19:53:12;;;;;;;56.20;23.27;;;3.10;99.90;;;;;;7178444;33;20098;-61
2022/01/26 19:57:14;;;;;;;61.53;24.30;;;3.10;99.90;;;;;;7181913;33;20110;-59
2022/01/26 20:01:16;;;;;;;60.17;24.05;;;2.90;99.90;;;;;;7180898;33;20114;-61
2022/01/26 20:05:18;;;;;;;67.15;24.20;;;3.00;99.90;;;;;;7168911;33;20188;-60
2022/01/26 20:09:28;;;;;;;59.53;22.08;;;2.90;99.90;;;;;;7179130;33;20556;-60
2022/01/26 20:13:33;;;;;;;58.30;22.77;;;2.90;99.90;;;;;;7180741;33;20114;-60
2022/01/26 20:17:35;;;;;;;54.70;23.05;;;2.90;99.90;;;;;;7174910;33;20168;-61
2022/01/26 20:21:36;;;;;;;57.95;23.73;;;3.00;99.90;;;;;;7158756;33;20136;-60
2022/01/26 20:25:38;;;;;;;55.53;21.85;;;3.00;99.90;;;;;;7181380;33;20218;-59
2022/01/26 20:29:46;;;;;;;54.67;22.37;;;3.10;99.90;;;;;;7180546;33;20109;-59
2022/01/26 20:33:51;;;;;;;60.45;23.83;;;3.00;99.90;;;;;;7178355;33;20196;-60
2022/01/26 20:37:52;;;;;;;66.55;24.60;;;3.00;99.90;;;;;;7169548;33;20125;-60
2022/01/26 20:41:54;;;;;;;58.08;23.55;;;3.00;99.90;;;;;;7157787;33;20109;-60
2022/01/26 20:45:56;;;;;;;52.80;22.55;;;3.00;99.90;;;;;;7178978;33;20185;-61
2022/01/26 20:49:58;;;;;;;54.10;22.73;;;3.00;99.90;;;;;;7176622;33;20314;-60
2022/01/26 20:54:00;;;;;;;54.60;22.13;;;3.00;99.90;;;;;;7177319;33;20129;-60
2022/01/26 20:58:02;;;;;;;48.03;20.95;;;3.00;99.90;;;;;;7151281;33;20121;-61
2022/01/26 21:02:20;;;;;;;50.00;21.90;;;3.00;99.90;;;;;;7168844;33;20192;-60
2022/01/26 21:06:22;;;;;;;48.72;20.98;;;3.00;99.90;;;;;;7178350;33;20484;-60
2022/01/26 21:10:25;;;;;;;45.35;19.30;;;3.10;99.90;;;;;;7165381;33;20113;-62
2022/01/26 21:14:27;;;;;;;49.95;20.10;;;3.00;99.90;;;;;;7166542;33;20684;-60
2022/01/26 21:18:31;;;;;;;51.47;20.77;;;3.10;99.90;;;;;;7154683;33;20208;-64
2022/01/26 21:22:32;;;;;;;45.50;18.55;;;3.10;99.90;;;;;;7159114;33;20184;-61
2022/01/26 21:26:34;;;;;;;46.13;19.35;;;3.10;99.90;;;;;;7180054;33;20578;-63
2022/01/26 21:30:36;;;;;;;46.95;18.62;;;3.10;99.90;;;;;;7168323;33;20102;-61
2022/01/26 21:34:38;;;;;;;51.95;19.62;;;3.10;99.90;;;;;;7182449;33;20217;-61
2022/01/26 21:38:41;;;;;;;40.17;17.92;;;3.00;99.90;;;;;;7179646;32;20123;-60
2022/01/26 21:42:43;;;;;;;51.85;19.83;;;3.10;99.90;;;;;;7164213;33;20465;-61
2022/01/26 21:46:45;;;;;;;48.17;18.27;;;3.10;99.90;;;;;;7181707;33;20138;-61
2022/01/26 21:50:47;;;;;;;52.50;19.23;;;3.10;99.90;;;;;;7181872;33;20234;-61
2022/01/26 21:54:49;;;;;;;49.53;20.15;;;3.20;99.90;;;;;;7182838;33;20192;-61
2022/01/26 21:58:52;;;;;;;46.83;20.23;;;3.10;99.90;;;;;;7184021;33;20131;-60
2022/01/26 22:02:55;;;;;;;48.63;19.95;;;3.20;99.90;;;;;;7181776;33;20106;-60
2022/01/26 22:06:57;;;;;;;51.97;19.42;;;3.20;99.90;;;;;;7183366;33;20114;-61
2022/01/26 22:10:59;;;;;;;47.67;19.40;;;3.10;99.90;;;;;;7181587;33;20184;-61
2022/01/26 22:15:02;;;;;;;50.10;19.20;;;3.20;99.90;;;;;;7175467;32;20184;-61
2022/01/26 22:19:05;;;;;;;48.60;20.80;;;3.30;99.90;;;;;;7154886;33;20243;-63
2022/01/26 22:23:08;;;;;;;51.67;20.50;;;3.30;99.90;;;;;;7168400;33;20567;-61
2022/01/26 22:27:12;;;;;;;49.42;19.87;;;3.30;99.90;;;;;;7176449;33;20210;-61
2022/01/26 22:31:14;;;;;;;44.72;19.62;;;3.20;99.90;;;;;;7179189;33;20492;-61
2022/01/26 22:35:16;;;;;;;47.85;20.88;;;3.30;99.90;;;;;;7163593;33;20118;-62
2022/01/26 22:39:17;;;;;;;45.10;18.60;;;3.30;99.90;;;;;;7163956;33;20129;-61
2022/01/26 22:43:19;;;;;;;44.30;19.33;;;3.30;99.90;;;;;;7172728;33;20634;-60
2022/01/26 22:47:24;;;;;;;45.92;19.60;;;3.30;99.90;;;;;;7169752;33;20135;-60
2022/01/26 22:51:26;;;;;;;49.47;20.70;;;3.30;99.90;;;;;;7163965;33;20118;-61
2022/01/26 22:55:50;;;;;;;54.70;21.90;;;3.40;99.90;;;;;;7175831;33;20129;-61
2022/01/26 22:59:52;;;;;;;48.97;21.45;;;3.30;99.90;;;;;;7150267;33;20105;-60
2022/01/26 23:03:54;;;;;;;46.05;20.48;;;3.40;99.90;;;;;;7174978;33;20133;-60
2022/01/26 23:07:56;;;;;;;47.45;20.80;;;3.30;99.90;;;;;;7177336;33;20938;-60
2022/01/26 23:11:58;;;;;;;47.65;19.37;;;3.40;99.90;;;;;;7176599;33;20220;-59
2022/01/26 23:16:01;;;;;;;46.53;20.40;;;3.40;99.90;;;;;;7163944;33;20726;-60
2022/01/26 23:20:05;;;;;;;44.65;19.33;;;3.40;99.90;;;;;;7178078;33;20117;-62
2022/01/26 23:24:34;;;;;;;46.97;20.25;;;3.40;99.90;;;;;;7177249;32;20106;-60
2022/01/26 23:28:47;;;;;;;45.03;18.85;;;3.30;99.90;;;;;;7179653;32;20114;-61
